Time;durP1;ratioP1;P1;durP2;ratioP2;P2;SDS_P1;SDS_P2;PMS_P1;PMS_P2;Temp;Humidity;BMP_temperature;BMP_pressure;BME280_temperature;BME280_humidity;BME280_pressure;Samples;Min_cycle;Max_cycle;Signal;HPM_P1;HPM_P2
2021/06/04 00:02:27;;;;;;;;;;;17.10;99.90;;;;;;5038079;28;20203;-69
2021/06/04 00:04:56;;;;;;;;;;;17.10;99.90;;;;;;5041832;28;19926;-70
2021/06/04 00:07:24;;;;;;;;;;;17.10;99.90;;;;;;5043917;28;20027;-71
2021/06/04 00:09:51;;;;;;;;;;;17.10;99.90;;;;;;5031612;28;20024;-70
2021/06/04 00:12:19;;;;;;;;;;;17.10;99.90;;;;;;5060263;28;19925;-70
2021/06/04 00:14:47;;;;;;;;;;;17.10;99.90;;;;;;5062909;28;20020;-70
2021/06/04 00:17:18;;;;;;;;;;;17.10;99.90;;;;;;5050159;28;20878;-70
2021/06/04 00:19:46;;;;;;;;;;;17.10;99.90;;;;;;5061071;28;20356;-70
2021/06/04 00:22:16;;;;;;;;;;;17.10;99.90;;;;;;5066111;28;19928;-70
2021/06/04 00:24:44;;;;;;;;;;;17.10;99.90;;;;;;5065228;28;19924;-70
2021/06/04 00:27:12;;;;;;;;;;;17.00;99.90;;;;;;5060842;28;19924;-70
2021/06/04 00:29:42;;;;;;;;;;;16.90;99.90;;;;;;5062179;28;19925;-70
2021/06/04 00:32:10;;;;;;;;;;;16.90;99.90;;;;;;5053184;28;19948;-70
2021/06/04 00:34:39;;;;;;;;;;;16.80;99.90;;;;;;5031993;28;19948;-70
2021/06/04 00:37:07;;;;;;;;;;;16.70;99.90;;;;;;5057000;28;19931;-70
2021/06/04 00:39:36;;;;;;;;;;;16.70;99.90;;;;;;5063750;28;20000;-70
2021/06/04 00:42:33;;;;;;;;;;;16.60;99.90;;;;;;5031958;28;19925;-70
2021/06/04 00:45:04;;;;;;;;;;;16.50;99.90;;;;;;5026776;28;20438;-69
2021/06/04 00:47:32;;;;;;;;;;;16.50;99.90;;;;;;5054753;28;19925;-72
2021/06/04 00:50:01;;;;;;;;;;;16.40;99.90;;;;;;5040911;28;19925;-70
2021/06/04 00:52:34;;;;;;;;;;;16.40;99.90;;;;;;5041072;28;19925;-70
2021/06/04 00:55:05;;;;;;;;;;;16.50;99.90;;;;;;5044060;28;19933;-70
2021/06/04 00:57:33;;;;;;;;;;;16.50;99.90;;;;;;5052616;28;19936;-70
2021/06/04 01:00:02;;;;;;;;;;;16.60;99.90;;;;;;5041332;28;20206;-70
2021/06/04 01:02:37;;;;;;;;;;;16.50;99.90;;;;;;5056392;28;19971;-70
2021/06/04 01:05:09;;;;;;;;;;;16.50;99.90;;;;;;5045052;28;19932;-70
2021/06/04 01:07:40;;;;;;;;;;;16.50;99.90;;;;;;5039509;28;19925;-71
2021/06/04 01:10:17;;;;;;;;;;;16.50;99.90;;;;;;5052751;28;19924;-70
2021/06/04 01:12:50;;;;;;;;;;;16.50;99.90;;;;;;5046835;28;20355;-70
2021/06/04 01:15:29;;;;;;;;;;;16.50;99.90;;;;;;5065822;28;19931;-70
2021/06/04 01:21:06;;;;;;;;;;;16.40;99.90;;;;;;5036375;28;19925;-69
2021/06/04 01:23:41;;;;;;;;;;;16.40;99.90;;;;;;5066983;28;19925;-70
2021/06/04 01:26:12;;;;;;;;;;;16.40;99.90;;;;;;5020236;28;20391;-69
2021/06/04 01:28:43;;;;;;;;;;;16.30;99.90;;;;;;5054494;28;19940;-69
2021/06/04 01:31:15;;;;;;;;;;;16.30;99.90;;;;;;5057596;28;20028;-69
2021/06/04 01:33:45;;;;;;;;;;;16.30;99.90;;;;;;5057289;28;19933;-70
2021/06/04 01:36:17;;;;;;;;;;;16.30;99.90;;;;;;5033845;28;19956;-70
2021/06/04 01:38:47;;;;;;;;;;;16.10;99.90;;;;;;5047546;28;20415;-69
2021/06/04 01:41:20;;;;;;;;;;;16.00;99.90;;;;;;5054603;28;19967;-69
2021/06/04 01:43:51;;;;;;;;;;;15.90;99.90;;;;;;5025624;28;19929;-69
2021/06/04 01:46:23;;;;;;;;;;;15.90;99.90;;;;;;5034330;28;20412;-70
2021/06/04 01:48:55;;;;;;;;;;;15.90;99.90;;;;;;5058223;28;19925;-69
2021/06/04 01:51:26;;;;;;;;;;;15.90;99.90;;;;;;5043639;28;19924;-69
2021/06/04 01:54:03;;;;;;;;;;;16.00;99.90;;;;;;5040713;28;19924;-71
2021/06/04 01:56:36;;;;;;;;;;;16.10;99.90;;;;;;5042476;28;19928;-69
2021/06/04 01:59:08;;;;;;;;;;;16.10;99.90;;;;;;5039648;28;19974;-69
2021/06/04 02:01:39;;;;;;;;;;;16.20;99.90;;;;;;5047797;28;20304;-70
2021/06/04 02:04:08;;;;;;;;;;;16.20;99.90;;;;;;5024631;28;19925;-69
2021/06/04 02:06:45;;;;;;;;;;;16.20;99.90;;;;;;5057544;28;20141;-70
2021/06/04 02:09:15;;;;;;;;;;;16.10;99.90;;;;;;5045217;28;19925;-69
2021/06/04 02:11:51;;;;;;;;;;;16.10;99.90;;;;;;5027322;28;19968;-69
2021/06/04 02:14:27;;;;;;;;;;;16.00;99.90;;;;;;5050663;28;19959;-69
2021/06/04 02:17:12;;;;;;;;;;;16.00;99.90;;;;;;5029653;28;19964;-69
2021/06/04 02:20:10;;;;;;;;;;;16.00;99.90;;;;;;5043162;28;19924;-69
2021/06/04 02:22:59;;;;;;;;;;;16.00;99.90;;;;;;5051825;28;19932;-69
2021/06/04 02:25:44;;;;;;;;;;;16.00;99.90;;;;;;5035248;28;20415;-70
2021/06/04 02:28:40;;;;;;;;;;;16.10;99.90;;;;;;5052331;28;19936;-69
2021/06/04 02:31:15;;;;;;;;;;;16.10;99.90;;;;;;5022124;28;20107;-72
2021/06/04 02:33:45;;;;;;;;;;;16.10;99.90;;;;;;5038234;28;19925;-69
2021/06/04 02:36:14;;;;;;;;;;;16.10;99.90;;;;;;5034416;28;19928;-69
2021/06/04 02:38:44;;;;;;;;;;;16.10;99.90;;;;;;5059581;28;20375;-70
2021/06/04 02:41:16;;;;;;;;;;;16.10;99.90;;;;;;5044102;28;19929;-69
2021/06/04 02:43:46;;;;;;;;;;;16.10;99.90;;;;;;5055258;28;19931;-69
2021/06/04 02:46:18;;;;;;;;;;;16.20;99.90;;;;;;5029213;28;19924;-69
2021/06/04 02:48:48;;;;;;;;;;;16.20;99.90;;;;;;5020449;28;20388;-69
2021/06/04 02:51:19;;;;;;;;;;;16.20;99.90;;;;;;5055989;28;19924;-69
2021/06/04 02:53:49;;;;;;;;;;;16.20;99.90;;;;;;5052672;28;19932;-69
2021/06/04 02:56:19;;;;;;;;;;;16.20;99.90;;;;;;5055929;28;19925;-69
2021/06/04 02:58:49;;;;;;;;;;;16.20;99.90;;;;;;5051408;28;19928;-70
2021/06/04 03:01:27;;;;;;;;;;;16.30;99.90;;;;;;5045683;28;19970;-69
2021/06/04 03:03:59;;;;;;;;;;;16.40;99.90;;;;;;5031295;28;19929;-69
2021/06/04 03:06:34;;;;;;;;;;;16.60;99.90;;;;;;5028613;28;20351;-70
2021/06/04 03:09:04;;;;;;;;;;;16.70;99.90;;;;;;5056766;28;19925;-69
2021/06/04 03:11:33;;;;;;;;;;;16.80;99.90;;;;;;5051331;28;19971;-70
2021/06/04 03:14:02;;;;;;;;;;;16.80;99.90;;;;;;5041996;28;20287;-70
2021/06/04 03:16:33;;;;;;;;;;;16.80;99.90;;;;;;5028711;28;19925;-69
2021/06/04 03:19:05;;;;;;;;;;;16.80;99.90;;;;;;5022503;28;19933;-69
2021/06/04 03:21:37;;;;;;;;;;;16.80;99.90;;;;;;5038764;28;19967;-70
2021/06/04 03:24:07;;;;;;;;;;;16.80;99.90;;;;;;5042732;28;19925;-70
2021/06/04 03:26:39;;;;;;;;;;;16.70;99.90;;;;;;5036450;28;19935;-69
2021/06/04 03:29:10;;;;;;;;;;;16.70;99.90;;;;;;5035750;28;19951;-69
2021/06/04 03:31:41;;;;;;;;;;;16.70;99.90;;;;;;5032258;28;19929;-70
2021/06/04 03:34:10;;;;;;;;;;;16.70;99.90;;;;;;5032739;28;19940;-70
2021/06/04 03:36:43;;;;;;;;;;;16.60;99.90;;;;;;5034431;28;20436;-69
2021/06/04 03:39:14;;;;;;;;;;;16.60;99.90;;;;;;5034083;28;20502;-69
2021/06/04 03:41:43;;;;;;;;;;;16.60;99.90;;;;;;5040892;28;19976;-69
2021/06/04 03:44:13;;;;;;;;;;;16.60;99.90;;;;;;5039810;28;19934;-70
2021/06/04 03:46:50;;;;;;;;;;;16.60;99.90;;;;;;5033003;28;19976;-71
2021/06/04 03:49:19;;;;;;;;;;;16.70;99.90;;;;;;5044564;28;19932;-70
2021/06/04 03:51:47;;;;;;;;;;;16.70;99.90;;;;;;5046701;28;19929;-70
2021/06/04 03:57:29;;;;;;;;;;;16.70;99.90;;;;;;5038967;28;19936;-78
2021/06/04 03:59:57;;;;;;;;;;;16.70;99.90;;;;;;5006133;28;19992;-77
2021/06/04 04:02:27;;;;;;;;;;;16.70;99.90;;;;;;5023658;28;19937;-78
2021/06/04 04:04:58;;;;;;;;;;;16.70;99.90;;;;;;5022931;28;19953;-77
2021/06/04 04:07:28;;;;;;;;;;;16.80;99.90;;;;;;5026473;28;19925;-78
2021/06/04 04:09:56;;;;;;;;;;;16.80;99.90;;;;;;5021422;28;19929;-77
2021/06/04 04:12:25;;;;;;;;;;;16.80;99.90;;;;;;5021097;28;20337;-77
2021/06/04 04:14:55;;;;;;;;;;;16.90;99.90;;;;;;5021457;28;19933;-78
2021/06/04 04:17:23;;;;;;;;;;;16.90;99.90;;;;;;5029384;28;19945;-78
2021/06/04 04:19:52;;;;;;;;;;;16.90;99.90;;;;;;5020984;28;20353;-78
2021/06/04 04:22:20;;;;;;;;;;;16.90;99.90;;;;;;5041413;28;19925;-78
2021/06/04 04:24:49;;;;;;;;;;;16.90;99.90;;;;;;5026772;28;19926;-77
2021/06/04 04:27:16;;;;;;;;;;;16.90;99.90;;;;;;5026422;28;19995;-77
2021/06/04 04:29:44;;;;;;;;;;;16.90;99.90;;;;;;5035422;28;19936;-78
2021/06/04 04:32:15;;;;;;;;;;;16.80;99.90;;;;;;5015391;28;19932;-78
2021/06/04 04:34:44;;;;;;;;;;;16.70;99.90;;;;;;5051005;28;19926;-78
2021/06/04 04:37:13;;;;;;;;;;;16.70;99.90;;;;;;5037303;28;19973;-77
2021/06/04 04:39:43;;;;;;;;;;;16.70;99.90;;;;;;5036936;28;19925;-77
2021/06/04 04:42:11;;;;;;;;;;;16.70;99.90;;;;;;5034636;28;20008;-78
2021/06/04 04:44:39;;;;;;;;;;;16.70;99.90;;;;;;5019253;28;19954;-78
2021/06/04 04:47:09;;;;;;;;;;;16.70;99.90;;;;;;5013145;28;19941;-78
2021/06/04 04:49:37;;;;;;;;;;;16.70;99.90;;;;;;5028798;28;19925;-78
2021/06/04 04:52:11;;;;;;;;;;;16.70;99.90;;;;;;5054641;28;19995;-78
2021/06/04 04:57:36;;;;;;;;;;;16.80;99.90;;;;;;5004010;28;20385;-77
2021/06/04 05:00:06;;;;;;;;;;;16.90;99.90;;;;;;4999216;28;19984;-71
2021/06/04 05:02:34;;;;;;;;;;;16.90;99.90;;;;;;5005674;28;20393;-72
2021/06/04 05:05:05;;;;;;;;;;;17.00;99.90;;;;;;5004173;28;19930;-78
2021/06/04 05:07:33;;;;;;;;;;;17.00;99.90;;;;;;5014590;28;19925;-79
2021/06/04 05:10:06;;;;;;;;;;;17.00;99.90;;;;;;5019291;28;19997;-78
2021/06/04 05:12:36;;;;;;;;;;;17.00;99.90;;;;;;5032166;28;19993;-79
2021/06/04 05:15:07;;;;;;;;;;;17.10;99.90;;;;;;4999219;28;19945;-79
2021/06/04 05:17:38;;;;;;;;;;;17.10;99.90;;;;;;4999391;28;19957;-79
2021/06/04 05:20:34;;;;;;;;;;;17.10;99.90;;;;;;5019188;28;19921;-80
2021/06/04 05:23:07;;;;;;;;;;;17.20;99.90;;;;;;5014412;28;19936;-80
2021/06/04 05:25:41;;;;;;;;;;;17.20;99.90;;;;;;5013506;28;19930;-82
2021/06/04 05:28:39;;;;;;;;;;;17.30;99.90;;;;;;5015179;28;19949;-79
2021/06/04 05:31:14;;;;;;;;;;;17.30;99.90;;;;;;4993007;28;19925;-78
2021/06/04 05:33:44;;;;;;;;;;;17.30;99.90;;;;;;5005736;28;19930;-78
2021/06/04 05:36:13;;;;;;;;;;;17.40;99.90;;;;;;5015315;28;20392;-78
2021/06/04 05:38:44;;;;;;;;;;;17.40;99.90;;;;;;5001036;28;20364;-78
2021/06/04 05:41:15;;;;;;;;;;;17.50;99.90;;;;;;5030199;28;19930;-78
2021/06/04 05:43:45;;;;;;;;;;;17.60;99.90;;;;;;5005772;28;19949;-78
2021/06/04 05:46:18;;;;;;;;;;;17.60;99.90;;;;;;5010363;28;19940;-78
2021/06/04 05:48:46;;;;;;;;;;;17.70;99.90;;;;;;5099184;23;19979;-77
2021/06/04 05:51:16;;;;;;;;;;;17.80;99.90;;;;;;5026314;28;19996;-75
2021/06/04 05:53:43;;;;;;;;;;;17.80;99.90;;;;;;5018545;28;19925;-74
2021/06/04 05:56:12;;;;;;;;;;;17.90;99.90;;;;;;5020913;28;20343;-75
2021/06/04 05:58:45;;;;;;;;;;;17.90;99.90;;;;;;5018197;28;19989;-75
2021/06/04 06:01:38;;;;;;;;;;;17.90;99.90;;;;;;5034820;28;19932;-76
2021/06/04 06:04:07;;;;;;;;;;;18.00;99.90;;;;;;5035178;28;19956;-75
2021/06/04 06:06:37;;;;;;;;;;;18.00;99.90;;;;;;5010665;28;19974;-74
2021/06/04 06:09:29;;;;;;;;;;;18.10;99.90;;;;;;5018939;28;19937;-76
2021/06/04 06:11:57;;;;;;;;;;;18.20;99.90;;;;;;5043564;28;19926;-77
2021/06/04 06:14:26;;;;;;;;;;;18.20;99.90;;;;;;5043972;28;19996;-77
2021/06/04 06:16:54;;;;;;;;;;;18.30;99.90;;;;;;5019907;28;19952;-77
2021/06/04 06:19:23;;;;;;;;;;;18.30;99.90;;;;;;5024717;28;19941;-77
2021/06/04 06:21:52;;;;;;;;;;;18.40;99.90;;;;;;5012658;28;19926;-77
2021/06/04 06:24:44;;;;;;;;;;;18.40;99.90;;;;;;5023551;28;19925;-76
2021/06/04 06:27:15;;;;;;;;;;;18.40;99.90;;;;;;5487294;23;19924;-76
2021/06/04 06:29:45;;;;;;;;;;;18.40;99.90;;;;;;5048923;28;19936;-75
2021/06/04 06:39:01;;;;;;;;;;;18.70;99.90;;;;;;5041586;28;19925;-76
2021/06/04 06:41:29;;;;;;;;;;;18.80;99.90;;;;;;5053742;28;20023;-77
2021/06/04 06:43:58;;;;;;;;;;;18.90;99.90;;;;;;5044018;28;20762;-77
2021/06/04 06:46:27;;;;;;;;;;;19.00;99.90;;;;;;5017763;28;19925;-77
2021/06/04 06:48:55;;;;;;;;;;;19.10;99.90;;;;;;5039714;28;19931;-76
2021/06/04 06:51:23;;;;;;;;;;;19.20;99.90;;;;;;5054881;28;19928;-75
2021/06/04 06:53:57;;;;;;;;;;;19.60;99.90;;;;;;5036754;28;19921;-76
2021/06/04 06:56:28;;;;;;;;;;;20.20;99.90;;;;;;5055204;28;19951;-76
2021/06/04 06:59:00;;;;;;;;;;;20.70;98.90;;;;;;5042912;28;19973;-77
2021/06/04 07:01:30;;;;;;;;;;;21.20;99.50;;;;;;5058606;28;20567;-76
2021/06/04 07:04:00;;;;;;;;;;;21.80;97.40;;;;;;5061728;28;19925;-75
2021/06/04 07:06:44;;;;;;;;;;;22.20;96.50;;;;;;5052170;28;20007;-75
2021/06/04 07:09:13;;;;;;;;;;;21.80;97.00;;;;;;5055789;28;19932;-76
2021/06/04 07:11:43;;;;;;;;;;;21.00;97.30;;;;;;5045255;28;19925;-76
2021/06/04 07:14:11;;;;;;;;;;;20.60;98.30;;;;;;5043904;28;19925;-76
2021/06/04 07:16:42;;;;;;;;;;;20.40;98.50;;;;;;5024585;28;19925;-76
2021/06/04 07:19:11;;;;;;;;;;;20.40;99.50;;;;;;5037848;28;19925;-77
2021/06/04 07:21:39;;;;;;;;;;;20.40;99.60;;;;;;5043788;28;19925;-77
2021/06/04 07:24:13;;;;;;;;;;;20.70;99.90;;;;;;5055427;28;20356;-77
2021/06/04 07:26:44;;;;;;;;;;;20.70;99.20;;;;;;5051265;28;19924;-76
2021/06/04 07:29:12;;;;;;;;;;;20.90;99.00;;;;;;5051543;28;19931;-76
2021/06/04 07:31:40;;;;;;;;;;;20.90;99.30;;;;;;5023287;28;19979;-76
2021/06/04 07:34:12;;;;;;;;;;;20.90;98.70;;;;;;5038844;28;19952;-75
2021/06/04 07:36:41;;;;;;;;;;;21.20;99.10;;;;;;5046824;28;19929;-77
2021/06/04 07:39:11;;;;;;;;;;;21.40;98.00;;;;;;5027496;28;19924;-78
2021/06/04 07:41:40;;;;;;;;;;;21.60;98.20;;;;;;5035734;28;21064;-75
2021/06/04 07:44:12;;;;;;;;;;;22.10;98.30;;;;;;5047531;28;19987;-75
2021/06/04 07:46:40;;;;;;;;;;;21.80;97.60;;;;;;5065551;28;19932;-76
2021/06/04 07:49:11;;;;;;;;;;;21.50;98.20;;;;;;5064189;28;19951;-75
2021/06/04 07:51:41;;;;;;;;;;;21.10;98.60;;;;;;5037195;28;19931;-77
2021/06/04 07:54:11;;;;;;;;;;;21.10;98.60;;;;;;5064488;28;19991;-77
2021/06/04 07:56:40;;;;;;;;;;;21.00;99.00;;;;;;5058171;28;19924;-76
2021/06/04 07:59:08;;;;;;;;;;;21.00;99.00;;;;;;5075210;28;20015;-77
2021/06/04 08:01:36;;;;;;;;;;;20.70;98.60;;;;;;5061986;28;19924;-77
2021/06/04 08:04:04;;;;;;;;;;;20.50;98.70;;;;;;5050572;28;19936;-78
2021/06/04 08:06:34;;;;;;;;;;;20.50;99.20;;;;;;5028252;28;19925;-79
2021/06/04 08:09:03;;;;;;;;;;;20.50;99.40;;;;;;5043864;28;19925;-78
2021/06/04 08:11:32;;;;;;;;;;;20.50;98.90;;;;;;5062112;28;19913;-76
2021/06/04 08:14:04;;;;;;;;;;;20.50;99.10;;;;;;5060484;28;19924;-75
2021/06/04 08:16:36;;;;;;;;;;;20.60;99.50;;;;;;5035496;28;20319;-77
2021/06/04 08:19:05;;;;;;;;;;;20.60;99.50;;;;;;5064910;28;19928;-77
2021/06/04 08:21:36;;;;;;;;;;;20.70;99.80;;;;;;5062178;28;20289;-76
2021/06/04 08:24:04;;;;;;;;;;;20.80;99.30;;;;;;5059352;28;19970;-78
2021/06/04 08:26:33;;;;;;;;;;;21.00;99.20;;;;;;5063102;28;20007;-76
2021/06/04 08:29:31;;;;;;;;;;;20.80;98.70;;;;;;5064452;28;19929;-76
2021/06/04 08:32:09;;;;;;;;;;;;;;;;;;;;;
2021/06/04 08:34:45;;;;;;;;;;;20.90;99.10;;;;;;5065685;28;19935;-77
2021/06/04 08:37:15;;;;;;;;;;;20.90;98.90;;;;;;5052958;28;19925;-77
2021/06/04 08:39:45;;;;;;;;;;;20.90;98.50;;;;;;5073279;28;19960;-78
2021/06/04 08:45:23;;;;;;;;;;;21.30;98.90;;;;;;5059087;28;19924;-78
2021/06/04 08:47:54;;;;;;;;;;;21.20;98.60;;;;;;5058578;28;19931;-77
2021/06/04 08:50:27;;;;;;;;;;;21.20;98.10;;;;;;5063786;28;20403;-76
2021/06/04 08:52:59;;;;;;;;;;;21.30;98.00;;;;;;5055770;28;19937;-78
2021/06/04 08:55:30;;;;;;;;;;;21.40;98.20;;;;;;5064109;28;19925;-78
2021/06/04 08:58:03;;;;;;;;;;;21.60;97.40;;;;;;5053836;28;19994;-78
2021/06/04 09:00:32;;;;;;;;;;;21.80;97.00;;;;;;5045455;28;19932;-78
2021/06/04 09:03:09;;;;;;;;;;;22.10;96.80;;;;;;5065297;28;19992;-77
2021/06/04 09:05:41;;;;;;;;;;;22.10;96.50;;;;;;5042296;28;19936;-78
2021/06/04 09:08:16;;;;;;;;;;;22.20;96.30;;;;;;5065330;28;19925;-78
2021/06/04 09:10:48;;;;;;;;;;;22.50;96.10;;;;;;5072080;28;19980;-77
2021/06/04 09:13:19;;;;;;;;;;;22.70;95.50;;;;;;5052888;28;20368;-78
2021/06/04 09:15:49;;;;;;;;;;;23.10;95.00;;;;;;5049159;28;19925;-78
2021/06/04 09:18:19;;;;;;;;;;;23.40;94.60;;;;;;5050454;28;19925;-76
2021/06/04 09:21:14;;;;;;;;;;;24.10;93.50;;;;;;5066046;28;19925;-77
2021/06/04 09:23:56;;;;;;;;;;;24.50;92.90;;;;;;4980567;28;19965;-79
2021/06/04 09:26:28;;;;;;;;;;;25.10;91.80;;;;;;5053541;28;19929;-76
2021/06/04 09:29:12;;;;;;;;;;;25.70;90.50;;;;;;5051786;28;19975;-77
2021/06/04 09:31:43;;;;;;;;;;;25.90;87.30;;;;;;5042815;28;19929;-78
2021/06/04 09:34:12;;;;;;;;;;;26.50;86.80;;;;;;5052094;28;19925;-77
2021/06/04 09:36:45;;;;;;;;;;;26.10;82.70;;;;;;5129442;22;19931;-77
2021/06/04 09:42:17;;;;;;;;;;;26.40;83.90;;;;;;5066610;28;20023;-79
2021/06/04 09:44:52;;;;;;;;;;;26.00;80.80;;;;;;5039500;28;20387;-78
2021/06/04 09:47:47;;;;;;;;;;;25.90;80.50;;;;;;5050519;28;19935;-78
2021/06/04 09:50:23;;;;;;;;;;;25.60;81.50;;;;;;5068264;28;19984;-78
2021/06/04 09:53:01;;;;;;;;;;;25.30;82.30;;;;;;5050891;28;19928;-78
2021/06/04 09:55:32;;;;;;;;;;;25.60;83.80;;;;;;5046769;28;19952;-77
2021/06/04 09:58:04;;;;;;;;;;;25.60;84.40;;;;;;5054472;28;20347;-78
2021/06/04 10:00:36;;;;;;;;;;;25.60;82.00;;;;;;5043808;28;19945;-77
2021/06/04 10:03:06;;;;;;;;;;;25.70;82.00;;;;;;5068859;28;19928;-77
2021/06/04 10:05:35;;;;;;;;;;;25.80;82.00;;;;;;5064074;28;19996;-78
2021/06/04 10:08:05;;;;;;;;;;;25.90;80.60;;;;;;5051877;28;19955;-77
2021/06/04 10:10:37;;;;;;;;;;;25.80;79.40;;;;;;5042065;28;19936;-78
2021/06/04 10:13:11;;;;;;;;;;;26.40;79.80;;;;;;5060938;28;20376;-77
2021/06/04 10:15:40;;;;;;;;;;;26.60;78.30;;;;;;5027348;28;19964;-78
2021/06/04 10:18:29;;;;;;;;;;;26.60;78.10;;;;;;5050996;28;19947;-77
2021/06/04 10:21:26;;;;;;;;;;;26.40;78.30;;;;;;5031053;28;19929;-77
2021/06/04 10:23:57;;;;;;;;;;;26.40;77.70;;;;;;5064908;28;19983;-79
2021/06/04 10:26:41;;;;;;;;;;;;;;;;;;;;;
2021/06/04 10:29:15;;;;;;;;;;;26.80;74.70;;;;;;5043085;28;19934;-78
2021/06/04 10:31:49;;;;;;;;;;;27.10;72.20;;;;;;5043094;28;19999;-78
2021/06/04 10:34:24;;;;;;;;;;;27.00;68.60;;;;;;5045545;28;19936;-79
2021/06/04 10:36:57;;;;;;;;;;;26.80;66.60;;;;;;5059903;28;20024;-78
2021/06/04 10:39:28;;;;;;;;;;;26.90;65.20;;;;;;5038985;28;19935;-79
2021/06/04 10:42:03;;;;;;;;;;;27.30;66.60;;;;;;5030644;28;19925;-77
2021/06/04 10:44:37;;;;;;;;;;;27.20;69.20;;;;;;5021636;28;19925;-79
2021/06/04 10:47:08;;;;;;;;;;;27.80;69.50;;;;;;5023639;28;19925;-78
2021/06/04 10:49:45;;;;;;;;;;;28.00;64.80;;;;;;5028872;28;19933;-78
2021/06/04 10:52:23;;;;;;;;;;;27.70;65.40;;;;;;5053579;28;19933;-78
2021/06/04 10:54:58;;;;;;;;;;;28.10;65.60;;;;;;5044334;28;19925;-78
2021/06/04 10:57:30;;;;;;;;;;;28.10;64.90;;;;;;5044700;28;20008;-79
2021/06/04 10:59:59;;;;;;;;;;;28.30;66.20;;;;;;5005094;28;20404;-78
2021/06/04 11:02:33;;;;;;;;;;;27.90;66.80;;;;;;5047369;28;19929;-79
2021/06/04 11:05:06;;;;;;;;;;;27.80;68.10;;;;;;5064919;28;19971;-77
2021/06/04 11:07:38;;;;;;;;;;;27.40;64.40;;;;;;5029849;28;19935;-79
2021/06/04 11:10:22;;;;;;;;;;;27.60;66.00;;;;;;5051019;28;19924;-78
2021/06/04 11:13:03;;;;;;;;;;;27.50;65.20;;;;;;5035178;28;19948;-78
2021/06/04 11:15:39;;;;;;;;;;;27.40;64.20;;;;;;5039260;28;19933;-78
2021/06/04 11:18:11;;;;;;;;;;;27.80;65.00;;;;;;5061935;28;19971;-79
2021/06/04 11:20:41;;;;;;;;;;;28.20;64.10;;;;;;5040778;28;19929;-79
2021/06/04 11:23:11;;;;;;;;;;;28.80;64.00;;;;;;5037030;28;20380;-79
2021/06/04 11:25:42;;;;;;;;;;;28.40;61.90;;;;;;5056926;28;19983;-77
2021/06/04 11:28:16;;;;;;;;;;;28.70;60.80;;;;;;5025436;28;19925;-77
2021/06/04 11:31:16;;;;;;;;;;;28.30;56.90;;;;;;5046143;28;19985;-78
2021/06/04 11:33:55;;;;;;;;;;;27.90;56.90;;;;;;5057727;28;19935;-80
2021/06/04 11:36:25;;;;;;;;;;;27.80;57.70;;;;;;5019468;28;19925;-77
2021/06/04 11:38:55;;;;;;;;;;;27.60;56.80;;;;;;5054580;28;19935;-76
2021/06/04 11:41:25;;;;;;;;;;;27.50;55.20;;;;;;5029031;28;19928;-76
2021/06/04 11:44:03;;;;;;;;;;;27.60;56.30;;;;;;5040175;28;19976;-77
2021/06/04 11:46:31;;;;;;;;;;;27.60;54.40;;;;;;5043314;28;19989;-76
2021/06/04 11:49:01;;;;;;;;;;;27.70;55.70;;;;;;5032775;28;19933;-75
2021/06/04 11:51:31;;;;;;;;;;;27.80;55.40;;;;;;5031291;28;19975;-76
2021/06/04 11:54:16;;;;;;;;;;;27.60;52.80;;;;;;5050761;28;19925;-76
2021/06/04 11:56:47;;;;;;;;;;;27.80;51.30;;;;;;5048263;28;19925;-78
2021/06/04 11:59:38;;;;;;;;;;;28.00;50.30;;;;;;5041500;28;19929;-76
2021/06/04 12:02:06;;;;;;;;;;;28.20;50.90;;;;;;5035766;28;19926;-76
2021/06/04 12:04:57;;;;;;;;;;;28.50;50.00;;;;;;5029130;28;19929;-77
2021/06/04 12:07:35;;;;;;;;;;;28.80;50.70;;;;;;5053443;28;19957;-76
2021/06/04 12:10:03;;;;;;;;;;;28.90;48.70;;;;;;5048606;28;19932;-76
2021/06/04 12:12:49;;;;;;;;;;;28.90;48.80;;;;;;5048327;28;19976;-77
2021/06/04 12:15:45;;;;;;;;;;;28.70;47.80;;;;;;5050879;28;19924;-78
2021/06/04 12:18:28;;;;;;;;;;;28.10;48.40;;;;;;5058369;28;19972;-75
2021/06/04 12:20:56;;;;;;;;;;;28.00;49.60;;;;;;5043577;28;19925;-75
2021/06/04 12:23:50;;;;;;;;;;;28.10;50.10;;;;;;5038715;28;19928;-79
2021/06/04 12:26:33;;;;;;;;;;;28.30;52.40;;;;;;5042229;28;19991;-75
2021/06/04 12:29:21;;;;;;;;;;;28.40;48.80;;;;;;5043607;28;20304;-75
2021/06/04 12:31:57;;;;;;;;;;;28.30;49.20;;;;;;5048740;28;19925;-75
2021/06/04 12:34:47;;;;;;;;;;;28.20;50.50;;;;;;5044782;28;20391;-76
2021/06/04 12:37:33;;;;;;;;;;;27.90;48.50;;;;;;5059632;28;19932;-76
2021/06/04 12:40:16;;;;;;;;;;;28.20;50.90;;;;;;5039333;28;19913;-77
2021/06/04 12:43:08;;;;;;;;;;;28.50;50.30;;;;;;5058184;28;19971;-76
2021/06/04 12:45:44;;;;;;;;;;;28.90;48.10;;;;;;5059297;28;19948;-77
2021/06/04 12:48:17;;;;;;;;;;;29.00;48.90;;;;;;5052165;28;20249;-78
2021/06/04 12:51:08;;;;;;;;;;;28.70;50.00;;;;;;5058110;28;19925;-80
2021/06/04 12:53:42;;;;;;;;;;;28.30;47.90;;;;;;5069880;23;20371;-71
2021/06/04 12:56:12;;;;;;;;;;;28.50;50.00;;;;;;5030089;28;19964;-70
2021/06/04 12:58:41;;;;;;;;;;;28.20;50.40;;;;;;5015183;28;19952;-69
2021/06/04 13:01:10;;;;;;;;;;;28.10;51.50;;;;;;5025037;28;20344;-71
2021/06/04 13:03:41;;;;;;;;;;;28.20;50.60;;;;;;5011505;28;19983;-70
2021/06/04 13:09:07;;;;;;;;;;;28.40;52.80;;;;;;5011718;28;20416;-70
2021/06/04 13:11:40;;;;;;;;;;;28.60;54.20;;;;;;5024271;28;19929;-72
2021/06/04 13:14:33;;;;;;;;;;;28.60;54.10;;;;;;5033302;28;20007;-72
2021/06/04 13:17:14;;;;;;;;;;;28.50;52.80;;;;;;5012290;28;20335;-71
2021/06/04 13:19:45;;;;;;;;;;;28.50;54.50;;;;;;5025541;28;19929;-71
2021/06/04 13:22:17;;;;;;;;;;;28.20;52.50;;;;;;5013611;28;19944;-71
2021/06/04 13:24:46;;;;;;;;;;;28.30;55.80;;;;;;4998811;28;19929;-71
2021/06/04 13:27:17;;;;;;;;;;;28.40;53.20;;;;;;5024985;28;19925;-71
2021/06/04 13:29:52;;;;;;;;;;;28.10;53.80;;;;;;5030064;28;19930;-70
2021/06/04 13:32:22;;;;;;;;;;;27.70;54.90;;;;;;5023981;28;19925;-71
2021/06/04 13:34:57;;;;;;;;;;;27.60;55.20;;;;;;5027119;28;19933;-71
2021/06/04 13:37:26;;;;;;;;;;;27.50;55.60;;;;;;5021833;28;19925;-71
2021/06/04 13:39:54;;;;;;;;;;;27.40;55.10;;;;;;5035079;28;19925;-71
2021/06/04 13:42:29;;;;;;;;;;;27.30;55.00;;;;;;5024478;28;20039;-71
2021/06/04 13:44:58;;;;;;;;;;;27.20;55.20;;;;;;5027419;28;19933;-70
2021/06/04 13:47:37;;;;;;;;;;;27.20;55.30;;;;;;5019433;28;19933;-71
2021/06/04 13:50:18;;;;;;;;;;;27.30;55.50;;;;;;5004170;28;20308;-71
2021/06/04 13:52:55;;;;;;;;;;;27.30;54.10;;;;;;5034444;28;19956;-71
2021/06/04 13:55:23;;;;;;;;;;;27.40;55.50;;;;;;5025158;28;19940;-71
2021/06/04 13:57:51;;;;;;;;;;;27.60;54.20;;;;;;5036248;28;20449;-70
2021/06/04 14:00:23;;;;;;;;;;;27.50;59.20;;;;;;5023546;28;19947;-70
2021/06/04 14:03:08;;;;;;;;;;;27.10;67.70;;;;;;5029495;28;20460;-71
2021/06/04 14:05:37;;;;;;;;;;;26.50;72.90;;;;;;5001775;28;19925;-70
2021/06/04 14:08:06;;;;;;;;;;;26.10;76.50;;;;;;5030702;28;19933;-70
2021/06/04 14:10:48;;;;;;;;;;;25.70;78.90;;;;;;5036191;28;19991;-71
2021/06/04 14:13:17;;;;;;;;;;;25.40;82.20;;;;;;5027221;28;20376;-71
2021/06/04 14:15:48;;;;;;;;;;;25.30;85.20;;;;;;5022017;28;19928;-70
2021/06/04 14:18:28;;;;;;;;;;;25.20;87.00;;;;;;5023714;28;20020;-70
2021/06/04 14:20:58;;;;;;;;;;;25.20;88.40;;;;;;5020985;28;20299;-70
2021/06/04 14:23:58;;;;;;;;;;;25.40;88.50;;;;;;5030473;28;20026;-70
2021/06/04 14:26:39;;;;;;;;;;;25.40;87.60;;;;;;5031353;28;19929;-70
2021/06/04 14:29:11;;;;;;;;;;;25.30;87.40;;;;;;5037014;28;19948;-71
2021/06/04 14:31:46;;;;;;;;;;;25.10;86.90;;;;;;5004027;28;20308;-70
2021/06/04 14:34:14;;;;;;;;;;;24.90;87.70;;;;;;5032502;28;19940;-70
2021/06/04 14:36:44;;;;;;;;;;;24.80;87.50;;;;;;5035077;28;19971;-70
2021/06/04 14:39:30;;;;;;;;;;;24.80;88.10;;;;;;5030970;28;19943;-70
2021/06/04 14:41:59;;;;;;;;;;;24.80;88.60;;;;;;5020079;28;19929;-70
2021/06/04 14:44:27;;;;;;;;;;;24.90;88.80;;;;;;5033113;28;20416;-70
2021/06/04 14:46:57;;;;;;;;;;;24.70;88.70;;;;;;5028971;28;20330;-70
2021/06/04 14:49:24;;;;;;;;;;;24.80;89.40;;;;;;5042498;28;19925;-72
2021/06/04 14:51:54;;;;;;;;;;;24.80;89.40;;;;;;5041396;28;20362;-70
2021/06/04 14:54:21;;;;;;;;;;;24.90;89.30;;;;;;5040168;28;20348;-70
2021/06/04 14:56:49;;;;;;;;;;;24.90;88.40;;;;;;5033616;28;19925;-70
2021/06/04 14:59:17;;;;;;;;;;;24.80;88.50;;;;;;5029173;28;20002;-70
2021/06/04 15:01:45;;;;;;;;;;;24.80;88.60;;;;;;4993505;28;19933;-71
2021/06/04 15:04:12;;;;;;;;;;;24.80;88.90;;;;;;5024695;28;20380;-70
2021/06/04 15:06:40;;;;;;;;;;;24.90;88.90;;;;;;5029739;28;20303;-70
2021/06/04 15:09:09;;;;;;;;;;;25.10;89.20;;;;;;5029317;28;20020;-70
2021/06/04 15:11:37;;;;;;;;;;;25.20;88.80;;;;;;5035056;28;20372;-70
2021/06/04 15:14:05;;;;;;;;;;;25.20;88.30;;;;;;5035893;28;19967;-70
2021/06/04 15:16:32;;;;;;;;;;;25.20;88.40;;;;;;5031859;28;19925;-70
2021/06/04 15:19:01;;;;;;;;;;;25.10;87.00;;;;;;5043057;28;19968;-70